Time;durP1;ratioP1;P1;durP2;ratioP2;P2;SDS_P1;SDS_P2;PMS_P1;PMS_P2;Temp;Humidity;BMP_temperature;BMP_pressure;BME280_temperature;BME280_humidity;BME280_pressure;Samples;Min_cycle;Max_cycle;Signal;HPM_P1;HPM_P2
2023/06/15 00:00:56;;;;;;;11.40;5.00;;;;;;;;;;110116;1279;22192;-85
2023/06/15 00:03:47;;;;;;;12.40;5.60;;;;;;;;;;110105;1256;22124;-85
2023/06/15 00:06:21;;;;;;;13.30;5.40;;;;;;;;;;110095;1280;22890;-85
2023/06/15 00:08:49;;;;;;;13.90;6.00;;;;;;;;;;110200;1280;22109;-85
2023/06/15 00:11:20;;;;;;;14.80;5.50;;;;;;;;;;110225;1280;22131;-86
2023/06/15 00:13:48;;;;;;;12.50;6.10;;;;;;;;;;110086;1256;22643;-85
2023/06/15 00:16:19;;;;;;;14.90;6.20;;;;;;;;;;110130;1280;22990;-85
2023/06/15 00:21:48;;;;;;;10.90;5.70;;;;;;;;;;110173;1280;22109;-86
2023/06/15 00:24:19;;;;;;;12.40;5.40;;;;;;;;;;110128;1256;22955;-85
2023/06/15 00:26:47;;;;;;;12.40;5.80;;;;;;;;;;110125;1280;22090;-85
2023/06/15 00:29:15;;;;;;;10.90;5.50;;;;;;;;;;110105;1280;22107;-85
2023/06/15 00:31:49;;;;;;;10.20;5.90;;;;;;;;;;110055;1280;22855;-86
2023/06/15 00:34:32;;;;;;;12.30;6.00;;;;;;;;;;110210;1256;22160;-86
2023/06/15 00:37:07;;;;;;;14.00;6.00;;;;;;;;;;110105;1280;22096;-86
2023/06/15 00:39:35;;;;;;;11.90;6.40;;;;;;;;;;110112;1280;22102;-85
2023/06/15 00:42:04;;;;;;;12.70;6.00;;;;;;;;;;110179;1280;22735;-85
2023/06/15 00:44:35;;;;;;;10.10;5.40;;;;;;;;;;110058;1257;22264;-86
2023/06/15 00:47:28;;;;;;;13.60;5.80;;;;;;;;;;110049;1280;22090;-86
2023/06/15 00:50:09;;;;;;;10.80;5.60;;;;;;;;;;110155;1280;22139;-85
2023/06/15 00:52:49;;;;;;;8.70;5.40;;;;;;;;;;110086;1278;22115;-85
2023/06/15 00:55:23;;;;;;;9.70;5.70;;;;;;;;;;110260;1262;22123;-85
2023/06/15 00:57:54;;;;;;;11.40;6.10;;;;;;;;;;110085;1280;22742;-85
2023/06/15 01:00:24;;;;;;;10.80;5.80;;;;;;;;;;110150;1280;22130;-85
2023/06/15 01:02:56;;;;;;;9.60;5.90;;;;;;;;;;110092;1280;22435;-87
2023/06/15 01:05:36;;;;;;;12.60;5.50;;;;;;;;;;110152;1262;22273;-87
2023/06/15 01:08:10;;;;;;;11.00;5.60;;;;;;;;;;110063;1280;22108;-85
2023/06/15 01:10:46;;;;;;;9.40;5.00;;;;;;;;;;110064;1280;22102;-85
2023/06/15 01:13:23;;;;;;;9.50;4.90;;;;;;;;;;110073;1280;21876;-85
2023/06/15 01:16:15;;;;;;;13.30;5.40;;;;;;;;;;110248;1261;22774;-85
2023/06/15 01:18:47;;;;;;;12.70;6.10;;;;;;;;;;110059;1280;22761;-85
2023/06/15 01:21:16;;;;;;;10.10;5.40;;;;;;;;;;110084;1280;22108;-85
2023/06/15 01:24:00;;;;;;;11.70;5.10;;;;;;;;;;110177;1280;22092;-86
2023/06/15 01:39:36;;;;;;;15.30;5.70;;;;;;;;;;109856;1269;22169;-85
2023/06/15 01:49:07;;;;;;;16.00;6.00;;;;;;;;;;104806;1286;545036;-86
2023/06/15 01:51:40;;;;;;;14.20;6.30;;;;;;;;;;106209;1287;24368;-89
2023/06/15 01:54:19;;;;;;;18.10;5.60;;;;;;;;;;106069;1288;24257;-88
2023/06/15 01:56:58;;;;;;;15.10;6.20;;;;;;;;;;106209;1288;22537;-90
2023/06/15 01:59:44;;;;;;;;;;;;;;;;;;;;;
2023/06/15 02:02:28;;;;;;;11.20;5.40;;;;;;;;;;102300;1286;5401085;-87
2023/06/15 02:05:00;;;;;;;13.70;5.30;;;;;;;;;;106385;1286;24182;-88
2023/06/15 02:07:42;;;;;;;14.90;5.30;;;;;;;;;;106161;1286;25223;-87
2023/06/15 02:10:28;;;;;;;9.00;5.10;;;;;;;;;;106150;1272;25243;-86
2023/06/15 02:13:11;;;;;;;11.00;5.10;;;;;;;;;;106360;1286;22552;-87
2023/06/15 02:15:49;;;;;;;11.90;5.30;;;;;;;;;;106438;1285;22535;-86
2023/06/15 02:18:34;;;;;;;9.30;5.40;;;;;;;;;;106122;1263;24192;-85
2023/06/15 02:21:08;;;;;;;14.80;5.40;;;;;;;;;;106281;1286;22651;-91
2023/06/15 02:23:57;;;;;;;11.60;5.80;;;;;;;;;;106125;1286;22946;-84
2023/06/15 02:26:29;;;;;;;11.00;5.50;;;;;;;;;;106422;1286;22811;-85
2023/06/15 02:29:04;;;;;;;10.80;5.20;;;;;;;;;;106370;1286;23013;-89
2023/06/15 02:31:43;;;;;;;10.00;5.20;;;;;;;;;;106177;1286;21703;-86
2023/06/15 02:34:27;;;;;;;9.30;5.30;;;;;;;;;;106391;1286;23137;-85
2023/06/15 02:37:02;;;;;;;12.30;5.30;;;;;;;;;;106389;1286;22534;-85
2023/06/15 02:39:47;;;;;;;10.80;5.60;;;;;;;;;;106371;1269;24746;-89
2023/06/15 02:42:29;;;;;;;9.30;5.10;;;;;;;;;;107139;1275;25224;-85
2023/06/15 02:45:22;;;;;;;11.30;5.90;;;;;;;;;;107034;1275;22553;-87
2023/06/15 02:47:54;;;;;;;10.20;5.60;;;;;;;;;;107165;1275;22524;-91
2023/06/15 02:50:43;;;;;;;11.30;5.70;;;;;;;;;;106939;1257;25580;-92
2023/06/15 02:53:27;;;;;;;10.10;5.60;;;;;;;;;;107142;1275;22552;-89
2023/06/15 02:56:03;;;;;;;12.30;5.70;;;;;;;;;;107024;1275;22511;-90
2023/06/15 02:58:47;;;;;;;11.10;5.10;;;;;;;;;;107027;1275;22475;-89
2023/06/15 03:01:49;;;;;;;10.30;5.30;;;;;;;;;;106983;1258;22517;-85
2023/06/15 03:04:30;;;;;;;10.60;5.20;;;;;;;;;;107195;1275;25548;-88
2023/06/15 03:07:10;;;;;;;11.00;5.60;;;;;;;;;;107129;1275;22524;-89
2023/06/15 03:10:00;;;;;;;13.80;5.70;;;;;;;;;;106967;1261;22530;-90
2023/06/15 03:12:30;;;;;;;9.30;5.10;;;;;;;;;;106967;1275;22523;-84
2023/06/15 03:15:09;;;;;;;10.50;5.20;;;;;;;;;;106964;1275;25520;-89
2023/06/15 03:17:48;;;;;;;11.20;5.40;;;;;;;;;;106992;1274;22523;-86
2023/06/15 03:20:24;;;;;;;8.50;5.00;;;;;;;;;;106953;1256;24323;-87
2023/06/15 03:23:16;;;;;;;9.40;5.40;;;;;;;;;;107166;1275;22672;-85
2023/06/15 03:26:07;;;;;;;11.80;5.50;;;;;;;;;;107060;1275;21998;-87
2023/06/15 03:28:43;;;;;;;10.30;5.20;;;;;;;;;;107159;1275;25400;-85
2023/06/15 03:31:40;;;;;;;9.90;5.70;;;;;;;;;;107114;1256;22528;-86
2023/06/15 03:34:21;;;;;;;12.00;6.10;;;;;;;;;;107111;1275;24199;-87
2023/06/15 03:37:17;;;;;;;12.20;6.00;;;;;;;;;;107009;1275;23112;-87
2023/06/15 03:40:39;;;;;;;15.50;5.90;;;;;;;;;;107156;1275;24229;-85
2023/06/15 03:43:58;;;;;;;16.80;5.80;;;;;;;;;;107172;1255;22555;-87
2023/06/15 03:46:10;;;;;;;12.60;5.80;;;;;;;;;;107092;1268;22519;-91
2023/06/15 03:48:51;;;;;;;15.60;6.20;;;;;;;;;;107141;1275;22521;-85
2023/06/15 03:51:51;;;;;;;12.80;5.90;;;;;;;;;;106967;1269;22523;-91
2023/06/15 03:54:28;;;;;;;11.50;5.80;;;;;;;;;;107105;1275;22485;-85
2023/06/15 03:57:18;;;;;;;15.30;6.10;;;;;;;;;;107053;1275;22663;-85
2023/06/15 03:59:55;;;;;;;12.40;6.10;;;;;;;;;;107189;1275;25236;-89
2023/06/15 04:02:44;;;;;;;;;;;;;;;;;;;;;
2023/06/15 04:05:27;;;;;;;9.40;5.80;;;;;;;;;;107061;1272;24228;-87
2023/06/15 04:07:56;;;;;;;10.00;5.10;;;;;;;;;;107196;1275;22542;-85
2023/06/15 04:10:39;;;;;;;;;;;;;;;;;;;;;
2023/06/15 04:13:35;;;;;;;9.90;5.90;;;;;;;;;;107121;1275;22532;-91
2023/06/15 04:16:07;;;;;;;12.00;6.50;;;;;;;;;;107038;1275;25255;-91
2023/06/15 04:19:09;;;;;;;;;;;;;;;;;;;;;
2023/06/15 04:22:21;;;;;;;;;;;;;;;;;;;;;
2023/06/15 04:25:13;;;;;;;10.30;6.20;;;;;;;;;;107147;1265;23924;-88
2023/06/15 04:27:50;;;;;;;15.60;6.90;;;;;;;;;;107000;1275;23946;-87
2023/06/15 04:30:24;;;;;;;18.70;7.00;;;;;;;;;;107003;1272;22994;-88
2023/06/15 04:33:19;;;;;;;14.10;6.20;;;;;;;;;;107122;1256;23906;-85
2023/06/15 04:35:50;;;;;;;14.20;6.40;;;;;;;;;;107239;1275;24185;-84
2023/06/15 04:38:40;;;;;;;11.10;6.10;;;;;;;;;;107124;1275;22531;-85
2023/06/15 04:41:27;;;;;;;10.40;6.20;;;;;;;;;;107159;1275;25223;-87
2023/06/15 04:44:32;;;;;;;11.10;6.50;;;;;;;;;;107213;1257;22514;-85
2023/06/15 04:48:00;;;;;;;12.60;6.30;;;;;;;;;;107067;1275;22516;-85
2023/06/15 04:50:35;;;;;;;11.00;6.70;;;;;;;;;;107137;1276;21943;-83
2023/06/15 04:53:32;;;;;;;;;;;;;;;;;;;;;
2023/06/15 04:56:31;;;;;;;12.50;6.90;;;;;;;;;;107116;1275;22525;-84
2023/06/15 04:59:38;;;;;;;15.80;6.50;;;;;;;;;;107000;1275;25246;-84
2023/06/15 05:02:48;;;;;;;;;;;;;;;;;;;;;
2023/06/15 05:05:45;;;;;;;16.50;7.50;;;;;;;;;;107111;1256;22571;-88
2023/06/15 05:08:29;;;;;;;21.80;7.50;;;;;;;;;;107154;1253;22938;-88
2023/06/15 05:11:04;;;;;;;30.50;8.70;;;;;;;;;;107036;1275;24195;-84
2023/06/15 05:13:58;;;;;;;33.00;9.40;;;;;;;;;;107117;1253;22586;-90
2023/06/15 05:17:03;;;;;;;35.30;10.70;;;;;;;;;;107054;1275;22789;-86
2023/06/15 05:22:56;;;;;;;36.90;10.90;;;;;;;;;;107089;1275;23001;-90
2023/06/15 05:26:07;;;;;;;36.80;10.70;;;;;;;;;;107127;1256;22523;-87
2023/06/15 05:29:40;;;;;;;29.80;10.80;;;;;;;;;;107095;1275;25493;-89
2023/06/15 05:31:57;;;;;;;28.60;9.90;;;;;;;;;;106958;1275;22707;-90
2023/06/15 05:34:50;;;;;;;31.10;10.30;;;;;;;;;;107066;1256;22523;-90
2023/06/15 05:37:48;;;;;;;31.90;10.20;;;;;;;;;;107009;1269;25307;-90
2023/06/15 05:43:52;;;;;;;22.60;8.90;;;;;;;;;;107057;1275;22520;-89
2023/06/15 05:46:52;;;;;;;20.10;8.90;;;;;;;;;;107069;1257;22476;-86
2023/06/15 05:50:14;;;;;;;17.20;7.80;;;;;;;;;;106712;1276;24743;-87
2023/06/15 05:52:41;;;;;;;17.80;6.30;;;;;;;;;;106621;1275;22746;-86
2023/06/15 05:55:41;;;;;;;;;;;;;;;;;;;;;
2023/06/15 05:59:09;;;;;;;20.60;8.20;;;;;;;;;;107049;1275;25400;-85
2023/06/15 06:02:23;;;;;;;;;;;;;;;;;;;;;
2023/06/15 06:05:40;;;;;;;19.80;8.70;;;;;;;;;;107110;1259;25242;-85
2023/06/15 06:08:26;;;;;;;21.50;8.30;;;;;;;;;;106964;1276;22555;-89
2023/06/15 06:11:05;;;;;;;22.10;8.20;;;;;;;;;;107020;1276;22951;-85
2023/06/15 06:14:03;;;;;;;17.50;7.70;;;;;;;;;;106942;1275;22750;-86
2023/06/15 06:16:45;;;;;;;22.80;8.10;;;;;;;;;;106978;1260;22540;-84
2023/06/15 06:19:18;;;;;;;17.80;8.30;;;;;;;;;;106975;1276;22557;-89
2023/06/15 06:22:15;;;;;;;20.80;8.40;;;;;;;;;;106992;1272;22528;-84
2023/06/15 06:24:43;;;;;;;27.80;8.90;;;;;;;;;;107010;1269;22553;-84
2023/06/15 06:27:14;;;;;;;23.10;8.20;;;;;;;;;;107089;1264;22580;-82
2023/06/15 06:29:53;;;;;;;28.30;9.30;;;;;;;;;;106955;1275;22526;-84
2023/06/15 06:32:37;;;;;;;24.90;8.30;;;;;;;;;;106973;1271;22521;-85
2023/06/15 06:35:13;;;;;;;27.20;8.20;;;;;;;;;;106971;1275;23876;-86
2023/06/15 06:37:51;;;;;;;16.50;7.20;;;;;;;;;;106897;1259;25281;-85
2023/06/15 06:40:18;;;;;;;17.80;7.50;;;;;;;;;;107023;1274;24433;-89
2023/06/15 06:42:45;;;;;;;19.60;8.00;;;;;;;;;;106750;1272;22526;-84
2023/06/15 06:45:27;;;;;;;14.10;7.60;;;;;;;;;;107001;1275;23324;-88
2023/06/15 06:48:04;;;;;;;13.20;6.40;;;;;;;;;;106894;1261;22659;-84
2023/06/15 06:50:37;;;;;;;12.40;6.50;;;;;;;;;;106902;1276;23873;-89
2023/06/15 06:53:09;;;;;;;13.90;6.50;;;;;;;;;;106895;1276;22522;-87
2023/06/15 06:55:45;;;;;;;12.90;6.60;;;;;;;;;;107011;1276;25478;-84
2023/06/15 06:58:17;;;;;;;11.50;6.90;;;;;;;;;;107047;1276;25891;-85
2023/06/15 07:00:44;;;;;;;14.00;7.10;;;;;;;;;;106997;1276;25370;-88
2023/06/15 07:03:20;;;;;;;14.70;6.90;;;;;;;;;;106913;1276;25344;-86
2023/06/15 07:05:50;;;;;;;15.00;7.20;;;;;;;;;;107245;1276;22506;-84
2023/06/15 07:08:21;;;;;;;14.30;7.40;;;;;;;;;;106912;1276;22696;-88
2023/06/15 07:10:51;;;;;;;17.50;7.00;;;;;;;;;;106910;1276;25423;-89
2023/06/15 07:13:21;;;;;;;12.20;6.70;;;;;;;;;;106943;1276;22539;-83
2023/06/15 07:15:56;;;;;;;16.00;7.10;;;;;;;;;;106946;1265;25331;-87
2023/06/15 07:18:51;;;;;;;16.50;7.90;;;;;;;;;;106935;1259;22528;-86
2023/06/15 07:21:29;;;;;;;16.80;7.50;;;;;;;;;;107016;1276;25526;-84
2023/06/15 07:24:11;;;;;;;15.70;7.20;;;;;;;;;;106896;1276;22547;-86
2023/06/15 07:26:56;;;;;;;14.30;6.50;;;;;;;;;;106989;1254;24245;-84
2023/06/15 07:29:28;;;;;;;11.00;5.50;;;;;;;;;;106926;1274;22780;-88
2023/06/15 07:32:03;;;;;;;11.80;5.70;;;;;;;;;;106962;1253;22545;-86
2023/06/15 07:34:35;;;;;;;15.40;5.20;;;;;;;;;;107039;1276;22627;-83
2023/06/15 07:37:06;;;;;;;10.40;5.60;;;;;;;;;;107231;1253;22520;-85
2023/06/15 07:39:38;;;;;;;13.30;5.40;;;;;;;;;;107004;1276;24319;-83
2023/06/15 07:42:09;;;;;;;14.30;5.90;;;;;;;;;;107033;1276;24221;-86
2023/06/15 07:44:38;;;;;;;13.60;6.00;;;;;;;;;;106924;1276;25207;-86
2023/06/15 07:47:12;;;;;;;10.50;5.60;;;;;;;;;;107008;1253;22672;-87
2023/06/15 07:49:44;;;;;;;12.40;5.90;;;;;;;;;;106943;1275;22522;-85
2023/06/15 07:52:16;;;;;;;11.40;6.30;;;;;;;;;;107144;1275;22562;-85
2023/06/15 07:54:43;;;;;;;12.10;6.60;;;;;;;;;;107165;1275;24337;-84
2023/06/15 07:57:21;;;;;;;11.60;7.00;;;;;;;;;;107159;1253;24350;-82
2023/06/15 07:59:48;;;;;;;12.00;6.60;;;;;;;;;;106965;1262;24362;-88
2023/06/15 08:02:38;;;;;;;14.60;6.80;;;;;;;;;;107054;1275;24270;-88
2023/06/15 08:05:10;;;;;;;10.60;6.20;;;;;;;;;;107095;1275;24956;-85
2023/06/15 08:07:40;;;;;;;14.00;7.00;;;;;;;;;;106989;1257;22519;-82
2023/06/15 08:10:17;;;;;;;11.70;6.20;;;;;;;;;;107013;1275;24335;-88
2023/06/15 08:12:46;;;;;;;15.40;7.00;;;;;;;;;;106991;1268;22525;-83
2023/06/15 08:15:13;;;;;;;9.90;5.70;;;;;;;;;;107276;1275;25357;-82
2023/06/15 08:17:42;;;;;;;12.00;6.50;;;;;;;;;;106932;1275;22400;-83
2023/06/15 08:20:09;;;;;;;12.40;6.30;;;;;;;;;;106999;1259;22524;-87
2023/06/15 08:22:44;;;;;;;10.60;6.60;;;;;;;;;;106947;1275;22659;-83
2023/06/15 08:25:16;;;;;;;11.20;6.70;;;;;;;;;;107108;1275;22611;-87
2023/06/15 08:27:48;;;;;;;11.20;6.50;;;;;;;;;;107183;1275;22599;-82
2023/06/15 08:30:15;;;;;;;11.00;6.50;;;;;;;;;;107173;1266;22525;-86
2023/06/15 08:32:48;;;;;;;11.70;7.00;;;;;;;;;;106969;1275;24367;-88
2023/06/15 08:35:15;;;;;;;10.80;7.00;;;;;;;;;;106997;1275;25354;-84
2023/06/15 08:37:42;;;;;;;15.10;7.40;;;;;;;;;;107077;1275;23922;-83
2023/06/15 08:40:19;;;;;;;12.00;7.00;;;;;;;;;;107021;1259;22626;-84
2023/06/15 08:42:55;;;;;;;14.20;7.10;;;;;;;;;;107149;1275;25034;-92
2023/06/15 08:45:32;;;;;;;13.20;6.70;;;;;;;;;;107029;1275;24180;-85
2023/06/15 08:48:05;;;;;;;13.70;6.10;;;;;;;;;;106957;1275;22660;-83
2023/06/15 08:50:40;;;;;;;12.90;7.00;;;;;;;;;;107075;1275;26487;-87
2023/06/15 08:53:13;;;;;;;13.60;6.60;;;;;;;;;;107031;1275;21757;-90
2023/06/15 08:55:40;;;;;;;12.50;7.20;;;;;;;;;;107174;1276;24232;-87
2023/06/15 08:58:09;;;;;;;12.40;7.40;;;;;;;;;;107035;1275;24194;-88
2023/06/15 09:00:44;;;;;;;11.70;6.50;;;;;;;;;;107037;1259;22514;-89
2023/06/15 09:03:18;;;;;;;12.30;6.50;;;;;;;;;;106988;1270;22516;-86
2023/06/15 09:05:47;;;;;;;14.60;7.30;;;;;;;;;;107090;1275;25265;-86
2023/06/15 09:08:20;;;;;;;20.30;7.70;;;;;;;;;;106968;1275;22517;-83
2023/06/15 09:10:55;;;;;;;13.20;7.20;;;;;;;;;;106997;1259;24249;-82
2023/06/15 09:13:41;;;;;;;10.60;6.50;;;;;;;;;;107089;1275;22522;-83
2023/06/15 09:16:08;;;;;;;15.80;7.00;;;;;;;;;;107036;1275;24177;-89
2023/06/15 09:18:47;;;;;;;11.30;5.80;;;;;;;;;;107082;1275;24606;-87
2023/06/15 09:21:47;;;;;;;;;;;;;;;;;;;;;
2023/06/15 09:24:25;;;;;;;12.40;5.80;;;;;;;;;;107090;1275;22999;-84
2023/06/15 09:26:56;;;;;;;11.00;5.70;;;;;;;;;;107049;1275;22527;-83
2023/06/15 09:29:41;;;;;;;11.00;6.20;;;;;;;;;;107169;1254;22552;-82
2023/06/15 09:32:17;;;;;;;10.70;5.70;;;;;;;;;;107029;1275;25274;-85
2023/06/15 09:34:58;;;;;;;12.20;6.20;;;;;;;;;;107010;1274;24251;-82
2023/06/15 09:37:27;;;;;;;11.90;6.00;;;;;;;;;;106957;1275;26426;-82
2023/06/15 09:39:57;;;;;;;12.10;6.20;;;;;;;;;;107092;1257;22578;-85
2023/06/15 09:42:56;;;;;;;10.90;5.60;;;;;;;;;;106996;1275;24199;-81
2023/06/15 09:45:31;;;;;;;11.30;5.90;;;;;;;;;;106930;1275;25427;-84
2023/06/15 09:47:58;;;;;;;11.20;5.10;;;;;;;;;;107112;1276;22516;-84
2023/06/15 09:50:31;;;;;;;11.90;5.40;;;;;;;;;;106998;1261;22523;-87
2023/06/15 09:53:01;;;;;;;9.70;5.20;;;;;;;;;;106997;1275;22528;-82
2023/06/15 09:55:33;;;;;;;10.30;5.80;;;;;;;;;;107074;1265;22516;-85
2023/06/15 09:58:01;;;;;;;10.20;5.90;;;;;;;;;;107174;1275;22531;-86
2023/06/15 10:00:27;;;;;;;11.00;5.90;;;;;;;;;;106960;1276;22525;-86
2023/06/15 10:02:57;;;;;;;9.90;5.50;;;;;;;;;;107029;1276;22639;-82
2023/06/15 10:05:31;;;;;;;9.30;5.30;;;;;;;;;;107162;1276;26492;-84
2023/06/15 10:08:11;;;;;;;11.70;6.30;;;;;;;;;;106896;1276;22524;-86
2023/06/15 10:10:40;;;;;;;11.50;5.70;;;;;;;;;;107103;1256;22482;-83
2023/06/15 10:13:13;;;;;;;10.60;5.60;;;;;;;;;;106973;1268;24205;-85
2023/06/15 10:15:41;;;;;;;11.10;5.40;;;;;;;;;;110520;1275;22125;-80
2023/06/15 10:18:10;;;;;;;11.50;5.80;;;;;;;;;;110617;1275;22101;-81
2023/06/15 10:20:37;;;;;;;14.60;6.00;;;;;;;;;;110607;1253;22185;-82
2023/06/15 10:23:10;;;;;;;10.80;5.50;;;;;;;;;;110380;1276;22869;-82
2023/06/15 10:25:36;;;;;;;12.60;5.70;;;;;;;;;;110477;1276;22592;-82
2023/06/15 10:28:13;;;;;;;12.20;5.60;;;;;;;;;;110365;1276;22392;-83
2023/06/15 10:30:58;;;;;;;10.60;5.50;;;;;;;;;;110422;1254;22951;-82
2023/06/15 10:33:31;;;;;;;10.50;4.90;;;;;;;;;;110591;1275;22135;-80
2023/06/15 10:36:02;;;;;;;9.70;4.30;;;;;;;;;;110563;1275;22147;-81
2023/06/15 10:38:31;;;;;;;12.10;5.60;;;;;;;;;;110581;1275;22330;-82
2023/06/15 10:40:59;;;;;;;15.20;5.50;;;;;;;;;;110572;1260;22158;-83
2023/06/15 10:43:27;;;;;;;10.50;5.40;;;;;;;;;;110275;1276;22164;-82
2023/06/15 10:45:54;;;;;;;9.10;4.80;;;;;;;;;;110169;1276;22078;-81
2023/06/15 10:48:28;;;;;;;11.30;5.20;;;;;;;;;;110440;1275;22340;-81
2023/06/15 10:51:21;;;;;;;8.30;4.80;;;;;;;;;;110276;1257;22407;-82
2023/06/15 10:53:48;;;;;;;8.70;5.20;;;;;;;;;;110646;1275;22786;-83
2023/06/15 10:56:21;;;;;;;9.50;4.80;;;;;;;;;;110657;1275;22190;-81
2023/06/15 10:58:58;;;;;;;11.80;4.90;;;;;;;;;;110397;1276;22890;-82
2023/06/15 11:01:32;;;;;;;10.00;4.80;;;;;;;;;;110344;1257;22124;-82
2023/06/15 11:03:59;;;;;;;9.30;4.60;;;;;;;;;;110497;1275;22124;-81
2023/06/15 11:06:29;;;;;;;8.50;4.10;;;;;;;;;;110474;1275;22331;-80
2023/06/15 11:09:07;;;;;;;11.40;4.40;;;;;;;;;;110645;1275;22835;-81
2023/06/15 11:11:38;;;;;;;11.80;5.20;;;;;;;;;;110415;1260;22217;-83
2023/06/15 11:14:05;;;;;;;10.20;4.60;;;;;;;;;;110452;1275;22127;-83
2023/06/15 11:16:37;;;;;;;11.20;5.20;;;;;;;;;;110678;1275;22168;-82
2023/06/15 11:19:11;;;;;;;9.80;4.20;;;;;;;;;;110467;1275;22125;-85
2023/06/15 11:21:47;;;;;;;9.20;4.10;;;;;;;;;;110637;1257;22783;-83
2023/06/15 11:24:19;;;;;;;10.20;3.90;;;;;;;;;;110356;1275;22320;-81
2023/06/15 11:26:48;;;;;;;8.10;3.80;;;;;;;;;;110307;1276;22123;-82
2023/06/15 11:29:25;;;;;;;11.40;3.80;;;;;;;;;;110485;1275;22093;-82
2023/06/15 11:31:55;;;;;;;7.60;3.90;;;;;;;;;;110461;1254;22864;-82
2023/06/15 11:34:22;;;;;;;8.90;3.70;;;;;;;;;;110337;1275;22866;-81
2023/06/15 11:36:56;;;;;;;9.00;4.10;;;;;;;;;;110339;1275;22098;-80
2023/06/15 11:39:23;;;;;;;9.90;3.80;;;;;;;;;;110392;1276;22122;-81
2023/06/15 11:41:50;;;;;;;8.30;3.70;;;;;;;;;;110305;1276;23244;-81
2023/06/15 11:44:18;;;;;;;7.50;3.50;;;;;;;;;;110192;1265;22177;-81
2023/06/15 11:46:52;;;;;;;7.20;3.60;;;;;;;;;;110377;1276;22097;-79
2023/06/15 11:49:19;;;;;;;9.40;4.00;;;;;;;;;;110302;1276;22151;-80
2023/06/15 11:51:47;;;;;;;9.30;3.80;;;;;;;;;;110379;1276;22079;-82
2023/06/15 11:54:15;;;;;;;8.80;3.70;;;;;;;;;;110766;1257;22749;-82
2023/06/15 11:56:48;;;;;;;9.50;3.90;;;;;;;;;;110417;1276;22191;-82
2023/06/15 11:59:16;;;;;;;8.80;3.70;;;;;;;;;;110449;1276;22108;-81
2023/06/15 12:01:44;;;;;;;9.20;3.80;;;;;;;;;;110188;1276;22179;-81
2023/06/15 12:04:13;;;;;;;8.10;3.80;;;;;;;;;;110674;1260;22133;-81
2023/06/15 12:06:42;;;;;;;8.80;3.80;;;;;;;;;;110281;1276;22143;-80
2023/06/15 12:09:13;;;;;;;8.30;3.60;;;;;;;;;;110390;1276;22110;-82
2023/06/15 12:11:40;;;;;;;9.40;4.20;;;;;;;;;;110398;1276;22806;-82
2023/06/15 12:14:08;;;;;;;7.80;3.80;;;;;;;;;;110691;1257;22160;-85
2023/06/15 12:16:36;;;;;;;8.50;3.70;;;;;;;;;;110406;1276;22819;-82
2023/06/15 12:19:03;;;;;;;11.80;4.10;;;;;;;;;;110267;1276;22268;-78
2023/06/15 12:21:49;;;;;;;8.50;4.00;;;;;;;;;;110277;1276;22102;-80
2023/06/15 12:24:22;;;;;;;10.30;3.40;;;;;;;;;;110693;1254;23033;-80
2023/06/15 12:26:51;;;;;;;9.10;3.80;;;;;;;;;;110226;1277;22120;-79
2023/06/15 12:29:20;;;;;;;8.90;3.50;;;;;;;;;;110343;1276;22142;-78
2023/06/15 12:31:51;;;;;;;10.20;3.40;;;;;;;;;;110250;1276;22102;-77
2023/06/15 12:34:26;;;;;;;7.70;3.10;;;;;;;;;;110546;1260;22200;-79
2023/06/15 12:37:02;;;;;;;9.30;3.60;;;;;;;;;;110398;1276;22188;-82
2023/06/15 12:39:30;;;;;;;6.50;3.30;;;;;;;;;;110427;1276;22793;-81
2023/06/15 12:42:03;;;;;;;9.20;3.60;;;;;;;;;;110150;1275;22885;-82
2023/06/15 12:44:40;;;;;;;11.60;4.10;;;;;;;;;;110632;1254;22193;-81
2023/06/15 12:47:17;;;;;;;14.10;4.30;;;;;;;;;;110385;1276;22819;-81
2023/06/15 12:49:45;;;;;;;8.80;3.80;;;;;;;;;;110248;1276;22123;-82
2023/06/15 12:52:22;;;;;;;8.70;3.70;;;;;;;;;;110472;1276;22109;-80
2023/06/15 12:54:48;;;;;;;8.40;4.00;;;;;;;;;;110568;1260;22116;-80
2023/06/15 12:57:24;;;;;;;9.10;3.60;;;;;;;;;;110350;1276;22013;-80
2023/06/15 12:59:54;;;;;;;10.30;4.20;;;;;;;;;;110262;1276;22192;-80
2023/06/15 13:02:21;;;;;;;10.80;4.60;;;;;;;;;;110346;1276;21983;-80
2023/06/15 13:04:58;;;;;;;;;;;;;;;;;;;;;
2023/06/15 13:07:36;;;;;;;9.30;4.60;;;;;;;;;;110479;1276;22093;-80
2023/06/15 13:10:05;;;;;;;9.10;3.90;;;;;;;;;;110331;1276;22269;-81
2023/06/15 13:12:35;;;;;;;13.10;4.00;;;;;;;;;;110350;1276;22160;-80
2023/06/15 13:15:06;;;;;;;8.60;3.70;;;;;;;;;;110510;1261;22113;-81
2023/06/15 13:17:38;;;;;;;8.80;4.00;;;;;;;;;;110290;1276;22090;-81
2023/06/15 13:20:09;;;;;;;8.20;4.10;;;;;;;;;;110151;1275;22655;-81
2023/06/15 13:22:39;;;;;;;9.60;3.80;;;;;;;;;;110536;1273;22305;-80
2023/06/15 13:25:09;;;;;;;7.10;3.40;;;;;;;;;;110514;1259;22887;-80
2023/06/15 13:27:39;;;;;;;8.60;3.80;;;;;;;;;;110326;1276;22122;-80
2023/06/15 13:30:10;;;;;;;9.50;3.70;;;;;;;;;;110326;1276;22137;-82
2023/06/15 13:32:38;;;;;;;12.10;3.40;;;;;;;;;;110253;1276;22108;-81
2023/06/15 13:35:06;;;;;;;7.70;3.30;;;;;;;;;;110380;1258;22131;-81
2023/06/15 13:37:41;;;;;;;8.40;3.50;;;;;;;;;;110354;1276;22145;-81
2023/06/15 13:40:10;;;;;;;6.60;3.30;;;;;;;;;;110232;1276;22066;-80
2023/06/15 13:42:38;;;;;;;8.40;3.30;;;;;;;;;;110130;1278;22210;-80
2023/06/15 13:45:14;;;;;;;8.20;3.50;;;;;;;;;;110115;1262;22183;-79
2023/06/15 13:47:44;;;;;;;7.00;3.30;;;;;;;;;;110190;1278;22127;-79
2023/06/15 13:50:31;;;;;;;7.80;3.40;;;;;;;;;;110237;1278;22116;-79
2023/06/15 13:52:59;;;;;;;9.30;3.60;;;;;;;;;;110215;1278;22128;-79
2023/06/15 13:55:37;;;;;;;7.20;3.30;;;;;;;;;;110253;1261;22921;-79
2023/06/15 13:58:12;;;;;;;8.80;3.40;;;;;;;;;;110191;1278;21677;-81
2023/06/15 14:00:39;;;;;;;9.70;4.10;;;;;;;;;;110223;1278;22131;-80
2023/06/15 14:03:07;;;;;;;7.00;3.60;;;;;;;;;;107820;1278;3086016;-81
2023/06/15 14:05:41;;;;;;;7.90;3.20;;;;;;;;;;110298;1260;22779;-80
2023/06/15 14:08:08;;;;;;;7.20;3.60;;;;;;;;;;110216;1278;22141;-80
2023/06/15 14:10:36;;;;;;;7.10;3.80;;;;;;;;;;110127;1278;22134;-81
2023/06/15 14:13:04;;;;;;;7.80;3.10;;;;;;;;;;110190;1278;22579;-81
2023/06/15 14:15:31;;;;;;;7.20;3.20;;;;;;;;;;110225;1257;22165;-80
2023/06/15 14:17:58;;;;;;;10.30;3.50;;;;;;;;;;110381;1278;22858;-80
2023/06/15 14:20:25;;;;;;;6.60;3.30;;;;;;;;;;110203;1278;22170;-81
2023/06/15 14:22:51;;;;;;;7.50;3.10;;;;;;;;;;110166;1276;22888;-85
2023/06/15 14:25:18;;;;;;;9.70;3.30;;;;;;;;;;110239;1257;22677;-80
2023/06/15 14:27:48;;;;;;;8.50;3.20;;;;;;;;;;110379;1278;22100;-81
2023/06/15 14:30:15;;;;;;;9.00;3.10;;;;;;;;;;110143;1278;22421;-81
2023/06/15 14:32:41;;;;;;;10.40;3.50;;;;;;;;;;110219;1278;22722;-80
2023/06/15 14:35:08;;;;;;;6.80;3.10;;;;;;;;;;110198;1278;22941;-80
2023/06/15 14:37:35;;;;;;;9.00;3.30;;;;;;;;;;110209;1257;22954;-79
2023/06/15 14:40:04;;;;;;;6.10;2.90;;;;;;;;;;110081;1268;22746;-80
2023/06/15 14:42:34;;;;;;;8.90;3.50;;;;;;;;;;110123;1279;22119;-79
2023/06/15 14:45:01;;;;;;;7.60;3.10;;;;;;;;;;110063;1279;22775;-79
2023/06/15 14:47:29;;;;;;;7.50;3.20;;;;;;;;;;110376;1263;22103;-79
2023/06/15 14:49:57;;;;;;;6.80;2.80;;;;;;;;;;110117;1266;22082;-80
2023/06/15 14:52:25;;;;;;;8.00;3.30;;;;;;;;;;110045;1279;22150;-80
2023/06/15 14:54:51;;;;;;;8.60;2.60;;;;;;;;;;110122;1279;22875;-79
2023/06/15 14:57:18;;;;;;;7.70;3.20;;;;;;;;;;110238;1263;22137;-80
2023/06/15 14:59:45;;;;;;;6.90;3.00;;;;;;;;;;110143;1279;22143;-79
2023/06/15 15:02:12;;;;;;;7.70;4.10;;;;;;;;;;110060;1279;22222;-79
2023/06/15 15:04:38;;;;;;;6.90;3.00;;;;;;;;;;110137;1279;22120;-80
2023/06/15 15:07:05;;;;;;;7.50;2.80;;;;;;;;;;110352;1256;22295;-81
2023/06/15 15:09:33;;;;;;;6.80;2.80;;;;;;;;;;110095;1279;21948;-81
2023/06/15 15:12:00;;;;;;;6.60;3.10;;;;;;;;;;110118;1279;22810;-79
2023/06/15 15:14:27;;;;;;;6.70;3.00;;;;;;;;;;110064;1280;22378;-80
2023/06/15 15:16:54;;;;;;;7.40;3.00;;;;;;;;;;110096;1260;22121;-80
2023/06/15 15:19:21;;;;;;;6.90;2.90;;;;;;;;;;110046;1279;22590;-80
2023/06/15 15:21:49;;;;;;;7.30;3.30;;;;;;;;;;110058;1279;22148;-80
2023/06/15 15:24:16;;;;;;;6.60;3.20;;;;;;;;;;110090;1279;22047;-80
2023/06/15 15:26:42;;;;;;;6.80;3.00;;;;;;;;;;110121;1257;22157;-80
2023/06/15 15:29:10;;;;;;;7.70;3.60;;;;;;;;;;110101;1279;22133;-79
2023/06/15 15:31:36;;;;;;;7.10;2.90;;;;;;;;;;110158;1279;21996;-80
2023/06/15 15:34:03;;;;;;;7.00;2.90;;;;;;;;;;110109;1279;22099;-79
2023/06/15 15:36:31;;;;;;;6.90;2.80;;;;;;;;;;110135;1256;23172;-80
2023/06/15 15:38:58;;;;;;;9.00;4.10;;;;;;;;;;110095;1279;22135;-81
2023/06/15 15:41:26;;;;;;;8.00;3.80;;;;;;;;;;110125;1264;22275;-80
2023/06/15 15:43:53;;;;;;;8.70;3.20;;;;;;;;;;109974;1280;22126;-78
2023/06/15 15:46:21;;;;;;;6.90;2.90;;;;;;;;;;110087;1280;22205;-78
2023/06/15 15:48:49;;;;;;;6.50;3.20;;;;;;;;;;110085;1263;22991;-78
2023/06/15 15:51:17;;;;;;;7.20;3.10;;;;;;;;;;110016;1280;22144;-78
2023/06/15 15:53:44;;;;;;;6.10;3.10;;;;;;;;;;110034;1280;22129;-79